Search for airport 
image banner adimage banner adimage banner ad
image banner ad

NV89 - Red Owl Ranch

Located in Crescent Valley, United States

ICAO - NV89, IATA -

Data provided by Airmate  

General information

Coordinates: N40°30'8" W116°32'48"
Elevation is 4850 feet MSL.
 
View others Airports in Nevada

Operational data

Special qualification required
Current time UTC:
Current local time:
Weather at : KBAM - Battle Mountain ( 30 km )
METAR: KBAM 131115Z AUTO 20004KT 10SM CLR 09/M02 A2999 RMK AO1
View NOTAMs / SUP AIP / TFR affecting this airport [VIEW]
Communications frequencies: [VIEW]

Runways:

RWY identifierQFULength (ft)Width (ft)SurfaceLDA (ft)
14675050OTHER
32675050OTHER

Airport contact information

Address: Crescent Valley United States

Satellite view of NV89